Time;durP1;ratioP1;P1;durP2;ratioP2;P2;SDS_P1;SDS_P2;PMS_P1;PMS_P2;Temp;Humidity;BMP_temperature;BMP_pressure;BME280_temperature;BME280_humidity;BME280_pressure;Samples;Min_cycle;Max_cycle;Signal;HPM_P1;HPM_P2
2021/10/25 00:01:29;;;;;;;21.13;13.27;;;;;;;5.86;59.89;101250.59;4858368;29;101199;-85
2021/10/25 00:03:55;;;;;;;22.90;14.20;;;;;;;5.76;60.00;101246.22;4827656;29;101875;-84
2021/10/25 00:06:21;;;;;;;26.20;13.80;;;;;;;5.76;60.25;101243.63;4843041;29;96859;-83
2021/10/25 00:08:46;;;;;;;24.10;12.80;;;;;;;5.77;60.32;101241.03;4842260;29;97861;-84
2021/10/25 00:11:13;;;;;;;19.40;13.10;;;;;;;5.85;59.77;101248.88;4869622;28;101499;-83
2021/10/25 00:13:40;;;;;;;25.23;13.33;;;;;;;5.83;59.89;101245.38;4854465;28;98041;-82
2021/10/25 00:16:06;;;;;;;22.57;13.03;;;;;;;5.83;60.28;101243.63;4858855;29;97080;-84
2021/10/25 00:18:33;;;;;;;22.27;12.77;;;;;;;5.83;59.85;101238.44;4858298;29;96946;-83
2021/10/25 00:20:59;;;;;;;23.97;12.87;;;;;;;5.84;59.55;101236.69;4842739;28;101678;-83
2021/10/25 00:23:24;;;;;;;19.97;13.57;;;;;;;5.73;60.37;101236.69;4826940;29;101552;-85
2021/10/25 00:25:50;;;;;;;24.13;13.70;;;;;;;5.57;61.20;101233.19;4874035;28;96695;-84
2021/10/25 00:28:16;;;;;;;24.80;14.07;;;;;;;5.47;61.67;101236.69;4859112;28;98067;-84
2021/10/25 00:30:41;;;;;;;29.17;16.40;;;;;;;5.44;61.28;101241.88;4842231;29;101311;-84
2021/10/25 00:33:07;;;;;;;32.37;17.17;;;;;;;5.43;62.09;101238.38;4842412;28;101229;-83
2021/10/25 00:35:32;;;;;;;30.57;17.07;;;;;;;5.45;61.18;101226.25;4857269;29;97037;-84
2021/10/25 00:37:58;;;;;;;29.63;15.70;;;;;;;5.35;61.74;101239.25;4867286;28;97304;-84
2021/10/25 00:40:24;;;;;;;27.60;16.50;;;;;;;5.11;62.50;101214.03;4841022;29;101709;-84
2021/10/25 00:42:51;;;;;;;35.47;18.03;;;;;;;4.95;62.61;101221.78;4841742;29;98413;-84
2021/10/25 00:45:17;;;;;;;31.83;17.33;;;;;;;4.92;63.24;101221.78;4857117;28;96862;-84
2021/10/25 00:47:42;;;;;;;39.83;17.63;;;;;;;5.00;63.08;101221.78;4842111;29;97106;-84
2021/10/25 00:50:09;;;;;;;38.73;19.03;;;;;;;5.03;63.06;101216.59;4858328;28;97683;-83
2021/10/25 00:52:38;;;;;;;31.70;17.97;;;;;;;4.82;63.43;101221.72;4858031;28;98404;-83
2021/10/25 00:55:05;;;;;;;31.17;19.20;;;;;;;4.83;63.48;101206.16;4840934;29;97260;-82
2021/10/25 00:57:31;;;;;;;36.30;19.20;;;;;;;4.87;63.52;101217.44;4838019;29;96886;-83
2021/10/25 01:00:00;;;;;;;33.03;17.50;;;;;;;4.72;63.97;101224.31;4857794;29;97988;-84
2021/10/25 01:02:25;;;;;;;35.67;17.87;;;;;;;4.69;63.97;101219.09;4827057;29;101371;-85
2021/10/25 01:04:55;;;;;;;31.80;17.37;;;;;;;4.70;64.14;101213.00;4857218;28;96696;-82
2021/10/25 01:07:21;;;;;;;29.97;17.70;;;;;;;4.63;63.79;101211.25;4839482;28;96814;-85
2021/10/25 01:09:47;;;;;;;34.30;18.63;;;;;;;4.57;64.26;101211.25;4856950;28;101186;-84
2021/10/25 01:12:13;;;;;;;33.60;18.27;;;;;;;4.53;64.64;101207.72;4842502;28;100080;-83
2021/10/25 01:14:39;;;;;;;34.90;17.13;;;;;;;4.43;64.77;101207.69;4841957;29;97191;-83
2021/10/25 01:17:05;;;;;;;30.10;17.03;;;;;;;4.40;64.63;101212.88;4842324;28;97065;-83
2021/10/25 01:19:31;;;;;;;36.37;19.40;;;;;;;4.37;64.96;101212.88;4841877;28;101764;-84
2021/10/25 01:22:01;;;;;;;37.10;17.87;;;;;;;4.35;64.58;101199.84;4832153;29;101946;-84
2021/10/25 01:24:27;;;;;;;30.67;18.27;;;;;;;4.31;64.97;101198.97;4832772;28;96714;-85
2021/10/25 01:26:53;;;;;;;30.37;17.47;;;;;;;4.39;64.85;101195.53;4844541;28;96991;-83
2021/10/25 01:29:19;;;;;;;34.90;17.83;;;;;;;4.39;64.62;101190.31;4842635;29;98536;-83
2021/10/25 01:31:47;;;;;;;34.30;17.83;;;;;;;4.33;64.60;101188.56;4826150;29;101145;-83
2021/10/25 01:34:13;;;;;;;37.20;19.27;;;;;;;4.40;64.56;101192.09;4857335;28;96904;-86
2021/10/25 01:36:40;;;;;;;32.57;17.43;;;;;;;4.22;65.11;101190.25;4843108;28;96880;-83
2021/10/25 01:39:07;;;;;;;33.73;17.27;;;;;;;4.31;64.52;101179.91;4860407;28;101085;-83
2021/10/25 01:41:33;;;;;;;37.37;17.70;;;;;;;4.28;64.99;101185.97;4839776;28;100479;-84
2021/10/25 01:44:04;;;;;;;28.87;16.43;;;;;;;4.32;64.86;101179.91;4845596;28;97246;-83
2021/10/25 01:46:30;;;;;;;31.93;17.60;;;;;;;4.31;64.86;101180.78;4841353;28;97265;-85
2021/10/25 01:48:55;;;;;;;28.73;16.23;;;;;;;4.35;64.66;101176.44;4854720;28;101907;-86
2021/10/25 01:51:22;;;;;;;31.20;17.10;;;;;;;4.24;64.69;101168.59;4846298;28;101245;-84
2021/10/25 01:53:47;;;;;;;33.43;17.07;;;;;;;4.16;65.16;101153.81;4844250;28;97848;-85
2021/10/25 01:56:13;;;;;;;25.40;15.17;;;;;;;4.19;65.05;101157.31;4847171;29;97152;-84
2021/10/25 01:58:42;;;;;;;35.37;16.03;;;;;;;4.27;64.60;101157.34;4832580;28;101436;-84
2021/10/25 02:01:07;;;;;;;27.03;15.10;;;;;;;4.36;64.58;101153.91;4865352;28;101323;-85
2021/10/25 02:03:36;;;;;;;27.00;15.60;;;;;;;4.32;64.54;101145.25;4832385;28;97146;-84
2021/10/25 02:06:14;;;;;;;30.83;17.00;;;;;;;4.38;64.35;101136.59;4861749;28;96819;-83
2021/10/25 02:08:39;;;;;;;31.00;15.40;;;;;;;4.26;64.12;101133.09;4885675;28;101277;-86
2021/10/25 02:11:06;;;;;;;33.37;17.63;;;;;;;4.31;64.33;101139.19;4860447;28;100980;-83
2021/10/25 02:13:34;;;;;;;27.70;16.63;;;;;;;4.20;64.65;101134.78;4860108;28;96851;-84
2021/10/25 02:16:04;;;;;;;35.50;16.97;;;;;;;4.12;64.73;101137.34;4829448;28;97572;-85
2021/10/25 02:18:30;;;;;;;30.10;15.63;;;;;;;4.08;64.82;101127.81;4851501;28;101603;-87
2021/10/25 02:20:56;;;;;;;27.70;16.00;;;;;;;4.22;64.81;101138.28;4828337;28;101838;-84
2021/10/25 02:23:22;;;;;;;27.50;16.10;;;;;;;4.12;64.81;101126.09;4843133;28;97893;-85
2021/10/25 02:25:51;;;;;;;28.37;16.13;;;;;;;4.14;64.83;101127.84;4869796;28;96898;-85
2021/10/25 02:28:20;;;;;;;32.10;16.53;;;;;;;4.16;64.41;101126.13;4843161;28;101176;-85
2021/10/25 02:30:52;;;;;;;27.58;15.50;;;;;;;4.10;64.56;101120.88;4834171;28;100545;-84
2021/10/25 02:33:18;;;;;;;24.63;15.87;;;;;;;4.09;64.46;101119.13;4869747;28;97387;-84
2021/10/25 02:35:44;;;;;;;28.07;16.33;;;;;;;4.11;64.41;101130.41;4865498;28;97195;-84
2021/10/25 02:38:10;;;;;;;30.70;17.17;;;;;;;4.01;64.78;101119.09;4851006;28;101846;-84
2021/10/25 02:40:36;;;;;;;29.73;16.33;;;;;;;4.07;64.35;101118.25;4845855;28;101044;-83
2021/10/25 02:43:02;;;;;;;24.63;16.07;;;;;;;4.09;64.56;101120.00;4876360;28;97169;-84
2021/10/25 02:45:28;;;;;;;27.13;15.93;;;;;;;4.01;64.56;101119.09;4860306;28;97037;-85
2021/10/25 02:47:55;;;;;;;25.43;15.07;;;;;;;4.14;64.38;101111.38;4860186;28;100004;-84
2021/10/25 02:50:20;;;;;;;30.03;15.27;;;;;;;3.98;64.16;101111.28;4860598;28;101351;-85
2021/10/25 02:52:47;;;;;;;28.93;15.57;;;;;;;4.04;64.54;101118.25;4828539;28;96698;-84
2021/10/25 02:55:12;;;;;;;29.30;16.10;;;;;;;4.04;64.56;101123.44;4860066;28;96858;-84
2021/10/25 02:57:38;;;;;;;30.17;15.90;;;;;;;4.01;64.10;101123.41;4870632;28;99855;-84
2021/10/25 03:00:09;;;;;;;24.33;16.07;;;;;;;3.99;64.28;101105.25;4857336;28;101517;-84
2021/10/25 03:02:36;;;;;;;28.60;15.55;;;;;;;4.00;64.63;101121.69;4850387;28;96897;-83
2021/10/25 03:05:03;;;;;;;31.07;15.90;;;;;;;4.00;64.68;101112.16;4839468;28;96823;-85
2021/10/25 03:07:29;;;;;;;26.23;15.23;;;;;;;3.97;64.72;101116.47;4836334;28;101476;-86
2021/10/25 03:09:57;;;;;;;27.27;14.30;;;;;;;3.99;64.85;101109.56;4851963;28;100745;-83
2021/10/25 03:12:23;;;;;;;28.57;15.47;;;;;;;3.97;64.50;101088.78;4835280;28;96790;-85
2021/10/25 03:14:53;;;;;;;30.03;17.17;;;;;;;4.20;64.50;101111.41;4848756;28;96867;-84
2021/10/25 03:17:19;;;;;;;29.07;15.77;;;;;;;4.09;64.51;101095.75;4863959;28;100333;-83
2021/10/25 03:20:05;;;;;;;27.00;16.73;;;;;;;4.13;64.06;101100.13;4865730;28;101986;-84
2021/10/25 03:22:30;;;;;;;30.47;17.73;;;;;;;4.00;64.88;101103.50;4843644;28;96694;-87
2021/10/25 03:24:57;;;;;;;26.17;16.23;;;;;;;3.89;64.87;101089.59;4843547;28;96860;-84
2021/10/25 03:27:23;;;;;;;30.03;16.43;;;;;;;3.84;65.15;101102.56;4847798;28;101765;-84
2021/10/25 03:29:48;;;;;;;27.57;15.57;;;;;;;3.85;64.84;101093.91;4857312;28;100156;-85
2021/10/25 03:32:14;;;;;;;29.57;17.90;;;;;;;3.79;65.29;101096.47;4854422;28;96674;-84
2021/10/25 03:34:41;;;;;;;34.20;16.80;;;;;;;3.50;65.89;101093.69;4859255;28;96728;-84
2021/10/25 03:37:07;;;;;;;30.43;17.40;;;;;;;3.59;65.72;101092.00;4858520;28;101537;-84
2021/10/25 03:39:36;;;;;;;30.37;17.13;;;;;;;3.52;66.43;101087.66;4847110;28;98042;-85
2021/10/25 03:42:05;;;;;;;34.97;18.23;;;;;;;3.69;65.86;101090.31;4844090;28;97140;-84
2021/10/25 03:44:43;;;;;;;29.37;17.20;;;;;;;3.60;65.88;101093.72;4858376;28;97079;-86
2021/10/25 03:47:26;;;;;;;32.90;17.50;;;;;;;3.62;66.06;101091.16;4844024;29;101449;-84
2021/10/25 03:50:29;;;;;;;33.90;16.47;;;;;;;3.66;65.80;101077.31;4830743;28;99743;-84
2021/10/25 03:55:44;;;;;;;26.60;15.50;;;;;;;3.46;66.19;101086.72;4857888;28;97218;-84
2021/10/25 04:28:29;;;;;;;22.23;12.10;;;;;;;3.36;66.55;101070.22;4841878;28;97139;-85
2021/10/25 04:30:57;;;;;;;27.87;12.80;;;;;;;3.34;66.38;101061.53;4858006;28;101043;-85
2021/10/25 04:33:26;;;;;;;25.35;12.10;;;;;;;3.32;66.53;101056.34;4833146;28;102057;-84
2021/10/25 04:36:13;;;;;;;25.13;12.53;;;;;;;3.34;66.26;101054.59;4832037;28;97090;-84
2021/10/25 04:38:43;;;;;;;25.93;12.13;;;;;;;3.24;66.96;101052.81;4828555;28;97030;-83
2021/10/25 04:41:09;;;;;;;25.10;13.47;;;;;;;3.17;66.49;101038.03;4830318;28;100966;-84
2021/10/25 04:43:35;;;;;;;28.90;13.17;;;;;;;3.23;66.61;101045.91;4880573;28;100969;-85
2021/10/25 04:46:01;;;;;;;31.67;13.73;;;;;;;3.23;67.02;101047.59;4875600;28;97162;-85
2021/10/25 04:48:27;;;;;;;25.07;13.23;;;;;;;3.14;66.75;101048.41;4889946;28;97024;-84
2021/10/25 04:51:12;;;;;;;36.17;15.60;;;;;;;3.22;66.84;101058.84;4857307;28;97458;-85
2021/10/25 04:53:54;;;;;;;25.10;12.27;;;;;;;3.05;67.41;101053.53;4849325;28;101654;-85
2021/10/25 04:56:27;;;;;;;26.57;13.00;;;;;;;3.09;66.96;101053.56;4864892;28;97088;-84
2021/10/25 04:58:52;;;;;;;25.10;13.23;;;;;;;3.13;67.29;101055.31;4847077;28;97268;-85
2021/10/25 05:01:18;;;;;;;26.27;13.33;;;;;;;2.99;67.65;101040.50;4831207;28;100972;-85
2021/10/25 05:03:44;;;;;;;27.47;13.17;;;;;;;3.08;67.14;101043.16;4845339;28;101783;-87
2021/10/25 05:06:16;;;;;;;24.60;12.53;;;;;;;3.02;67.39;101049.16;4892210;28;96671;-83
2021/10/25 05:08:45;;;;;;;23.00;13.13;;;;;;;3.03;66.91;101040.56;4865028;28;97042;-85
2021/10/25 05:11:12;;;;;;;31.60;13.03;;;;;;;3.01;67.50;101050.03;4858827;28;101627;-83
2021/10/25 05:13:45;;;;;;;23.90;12.00;;;;;;;2.94;67.17;101050.84;4861637;28;101439;-84
2021/10/25 05:16:11;;;;;;;27.33;13.07;;;;;;;3.06;67.27;101050.94;4854127;28;96817;-84
2021/10/25 05:18:45;;;;;;;27.07;12.80;;;;;;;3.09;67.23;101047.53;4860451;28;97186;-90
2021/10/25 05:21:11;;;;;;;26.93;12.67;;;;;;;3.23;66.43;101048.50;4877646;28;98210;-94
2021/10/25 05:23:36;;;;;;;21.37;11.50;;;;;;;3.23;66.57;101040.72;4853912;28;101732;-93
2021/10/25 05:26:04;;;;;;;22.13;11.37;;;;;;;3.01;67.07;101031.88;4861811;28;97167;-95
2021/10/25 05:28:29;;;;;;;21.20;13.07;;;;;;;3.16;66.91;101044.97;4857349;28;96758;-95
2021/10/25 05:30:55;;;;;;;24.63;11.67;;;;;;;3.30;66.07;101036.44;4841019;28;101165;-94
2021/10/25 05:33:30;;;;;;;22.93;11.47;;;;;;;3.19;66.23;101033.75;4857806;28;99769;-80
2021/10/25 05:35:56;;;;;;;26.73;12.67;;;;;;;3.36;65.97;101024.34;4825644;28;97087;-82
2021/10/25 05:38:22;;;;;;;25.17;12.63;;;;;;;3.23;66.01;101027.75;4838962;29;97108;-86
2021/10/25 05:40:47;;;;;;;21.97;12.47;;;;;;;3.26;66.19;101035.53;4831535;29;102024;-91
2021/10/25 05:43:15;;;;;;;21.20;10.73;;;;;;;3.22;66.12;101013.00;4841046;29;101860;-83
2021/10/25 05:45:41;;;;;;;24.30;12.63;;;;;;;3.28;65.97;101026.03;4830441;29;97322;-87
2021/10/25 05:48:07;;;;;;;22.70;12.40;;;;;;;3.32;66.12;101025.19;4838285;29;97052;-93
2021/10/25 05:50:33;;;;;;;26.43;13.70;;;;;;;3.35;65.92;101026.97;4835908;29;100330;-86
2021/10/25 05:53:00;;;;;;;22.43;12.53;;;;;;;3.43;65.77;101034.78;4818254;29;101518;-90
2021/10/25 05:55:27;;;;;;;20.60;12.20;;;;;;;3.45;65.85;101026.13;4815114;29;97331;-92
2021/10/25 05:57:55;;;;;;;17.50;11.17;;;;;;;3.42;65.87;101020.94;4839449;28;97410;-93
2021/10/25 06:00:26;;;;;;;24.43;11.90;;;;;;;3.54;65.52;101025.31;4841662;29;101831;-93
2021/10/25 06:02:53;;;;;;;20.77;11.83;;;;;;;3.68;64.88;101017.63;4855407;28;101291;-93
2021/10/25 06:05:26;;;;;;;15.97;9.30;;;;;;;3.91;63.93;101017.75;4831319;29;96814;-90
2021/10/25 06:07:52;;;;;;;16.02;7.53;;;;;;;4.78;60.53;101002.34;4829711;29;97235;-93
2021/10/25 06:10:25;;;;;;;12.30;6.10;;;;;;;5.34;58.08;101000.56;4826959;29;101741;-94
2021/10/25 06:12:51;;;;;;;10.27;6.53;;;;;;;5.48;57.94;100997.94;4831733;29;100390;-90
2021/10/25 06:15:38;;;;;;;18.90;7.77;;;;;;;5.70;56.75;100997.00;4844771;28;96800;-93
2021/10/25 06:18:08;;;;;;;14.07;6.23;;;;;;;5.90;56.04;100983.91;4845434;28;97238;-92
2021/10/25 06:20:34;;;;;;;7.57;5.53;;;;;;;5.94;56.05;100979.59;4827182;29;101677;-86
2021/10/25 06:23:07;;;;;;;14.97;5.70;;;;;;;6.03;55.32;100969.13;4840887;29;101467;-91
2021/10/25 06:25:37;;;;;;;9.63;5.60;;;;;;;6.13;55.70;100981.22;4854597;28;96826;-86
2021/10/25 06:28:14;;;;;;;11.30;5.43;;;;;;;6.26;55.08;100987.25;4832960;28;97396;-92
2021/10/25 06:30:54;;;;;;;10.97;6.43;;;;;;;6.38;54.97;100983.72;4863838;28;101308;-95
2021/10/25 06:33:21;;;;;;;11.25;6.25;;;;;;;6.39;55.12;100977.59;4838408;29;101187;-90
2021/10/25 06:36:13;;;;;;;12.30;6.37;;;;;;;6.40;54.98;100977.59;4843381;29;97233;-87
2021/10/25 06:41:18;;;;;;;14.83;6.50;;;;;;;6.50;54.84;100994.06;4847738;28;101426;-92
2021/10/25 06:43:45;;;;;;;9.13;6.00;;;;;;;6.91;53.67;100975.47;4837471;29;101421;-87
2021/10/25 06:46:14;;;;;;;11.47;5.20;;;;;;;7.33;52.92;100977.69;4839848;28;97466;-82
2021/10/25 06:48:39;;;;;;;8.93;4.43;;;;;;;7.65;51.19;100985.16;4859448;28;96871;-86
2021/10/25 06:51:05;;;;;;;8.67;4.63;;;;;;;7.89;50.53;100994.50;4841462;28;101880;-87
2021/10/25 06:53:32;;;;;;;8.97;4.73;;;;;;;8.50;48.78;100982.38;4865360;28;101390;-90
2021/10/25 06:56:08;;;;;;;8.73;5.83;;;;;;;9.63;46.71;100969.03;4869018;28;97009;-91
2021/10/25 06:58:34;;;;;;;8.37;6.23;;;;;;;10.06;45.55;100969.00;4841865;29;97383;-86
2021/10/25 07:01:01;;;;;;;12.77;7.00;;;;;;;10.37;44.97;100973.63;4842364;28;100810;-91
2021/10/25 07:03:28;;;;;;;11.15;7.38;;;;;;;10.70;44.35;100985.09;4851163;29;98453;-88
2021/10/25 07:05:54;;;;;;;8.70;6.90;;;;;;;10.95;43.27;100979.25;4855985;29;98365;-91
2021/10/25 07:08:21;;;;;;;9.73;6.90;;;;;;;11.16;43.04;100956.81;4835552;29;97207;-91
2021/10/25 07:10:47;;;;;;;10.18;6.75;;;;;;;11.23;42.17;100963.66;4854893;28;98434;-92
2021/10/25 07:13:14;;;;;;;8.90;6.35;;;;;;;11.28;42.16;100965.22;4848282;28;100963;-87
2021/10/25 07:15:54;;;;;;;9.32;7.10;;;;;;;11.32;42.46;100958.13;4853954;28;97685;-86
2021/10/25 07:18:30;;;;;;;8.82;6.20;;;;;;;11.65;41.91;100966.00;4839608;29;96861;-85
2021/10/25 07:21:42;;;;;;;13.93;6.78;;;;;;;11.68;41.61;100979.06;4839716;28;102428;-85
2021/10/25 08:11:02;;;;;;;11.50;9.25;;;;;;;19.02;29.76;100941.00;4837821;29;96843;-85
2021/10/25 08:13:33;;;;;;;14.13;8.50;;;;;;;19.36;29.49;100942.50;4837542;29;97538;-85
2021/10/25 08:16:09;;;;;;;14.60;9.68;;;;;;;20.09;28.70;100945.06;4851135;28;101448;-85
2021/10/25 08:18:42;;;;;;;9.57;8.00;;;;;;;19.50;29.45;100936.34;4855823;28;101665;-85
2021/10/25 08:21:11;;;;;;;12.23;8.45;;;;;;;19.98;28.74;100939.56;4836406;29;97828;-86
2021/10/25 08:23:36;;;;;;;11.27;8.60;;;;;;;20.06;28.71;100931.94;4848815;28;96931;-86
2021/10/25 08:26:16;;;;;;;12.57;8.27;;;;;;;21.20;27.48;100938.63;4854178;28;98693;-86
2021/10/25 08:28:44;;;;;;;9.40;8.40;;;;;;;21.99;26.48;100917.13;4856267;28;100813;-85
2021/10/25 08:31:12;;;;;;;12.43;8.68;;;;;;;21.40;27.13;100915.94;4848189;28;97942;-85
2021/10/25 08:36:25;;;;;;;8.65;7.50;;;;;;;22.23;26.55;100909.19;4848060;28;102102;-84
2021/10/25 08:42:01;;;;;;;10.38;8.07;;;;;;;22.87;24.93;100901.66;4841218;29;97193;-84
2021/10/25 08:44:29;;;;;;;10.25;8.35;;;;;;;23.41;24.57;100906.41;4857160;28;97050;-84
2021/10/25 08:46:58;;;;;;;8.70;7.55;;;;;;;23.19;23.93;100893.00;4834841;28;101437;-87
2021/10/25 08:49:24;;;;;;;12.40;7.80;;;;;;;23.17;23.82;100894.94;4855751;28;98454;-85
2021/10/25 08:51:50;;;;;;;8.90;8.07;;;;;;;22.41;23.94;100898.94;4860128;28;97137;-87
2021/10/25 08:54:20;;;;;;;9.52;8.07;;;;;;;22.92;24.23;100906.66;4851804;28;97381;-90
2021/10/25 08:56:46;;;;;;;10.05;7.72;;;;;;;22.97;24.37;100899.16;4860564;28;101067;-89
2021/10/25 08:59:13;;;;;;;9.20;8.18;;;;;;;23.13;24.35;100898.84;4854448;28;101307;-86
2021/10/25 09:01:40;;;;;;;8.23;7.38;;;;;;;23.09;24.09;100898.19;4854367;28;98180;-84
2021/10/25 09:04:26;;;;;;;8.57;7.78;;;;;;;23.73;23.24;100890.47;4871052;28;97259;-85
2021/10/25 09:06:58;;;;;;;13.70;8.38;;;;;;;24.06;23.49;100893.25;4871360;28;101259;-88
2021/10/25 09:09:32;;;;;;;9.18;8.38;;;;;;;24.36;23.38;100897.91;4841228;29;101498;-96
2021/10/25 09:12:08;;;;;;;9.30;8.07;;;;;;;25.16;21.96;100889.38;4855195;28;96728;-96
2021/10/25 09:14:57;;;;;;;13.45;7.47;;;;;;;25.11;21.13;100880.84;4851463;28;97445;-90
2021/10/25 09:17:24;;;;;;;8.05;7.22;;;;;;;24.67;21.11;100887.31;4867521;28;101364;-93
2021/10/25 09:20:03;;;;;;;8.07;7.30;;;;;;;24.49;21.06;100887.03;4822867;29;101448;-84
2021/10/25 09:22:29;;;;;;;8.45;7.65;;;;;;;24.58;21.50;100894.28;4854287;28;97109;-84
2021/10/25 09:24:57;;;;;;;8.90;8.07;;;;;;;24.80;21.35;100896.88;4852413;28;97351;-84
2021/10/25 09:27:36;;;;;;;10.35;8.02;;;;;;;24.68;21.43;100884.50;4863410;28;101567;-83
2021/10/25 09:30:11;;;;;;;13.23;8.77;;;;;;;24.78;21.00;100876.50;4848075;28;101030;-84
2021/10/25 09:32:40;;;;;;;8.52;7.30;;;;;;;24.78;21.17;100880.06;4867378;28;97578;-84
2021/10/25 09:35:43;;;;;;;8.70;7.55;;;;;;;24.54;21.25;100892.84;4818511;29;97314;-84
2021/10/25 09:38:33;;;;;;;8.60;6.80;;;;;;;23.93;21.59;100896.91;4834207;29;101982;-84
2021/10/25 09:50:11;;;;;;;8.82;6.68;;;;;;;21.52;23.82;100895.50;4839420;29;101876;-83
2021/10/25 09:52:40;;;;;;;10.13;6.55;;;;;;;21.41;24.36;100888.28;4819158;29;101043;-84
2021/10/25 09:55:13;;;;;;;11.45;6.85;;;;;;;21.29;24.83;100886.41;4865445;28;97849;-84
2021/10/25 10:00:32;;;;;;;11.77;8.43;;;;;;;20.95;25.17;100885.25;4851642;29;97772;-83
2021/10/25 10:02:59;;;;;;;8.38;7.20;;;;;;;21.39;25.24;100878.66;4836973;28;100450;-83
2021/10/25 10:05:42;;;;;;;7.47;6.82;;;;;;;21.07;24.94;100878.22;4836518;29;97418;-84
2021/10/25 10:08:09;;;;;;;7.43;6.38;;;;;;;20.67;25.22;100878.25;4837290;29;97348;-84
2021/10/25 10:10:36;;;;;;;9.60;7.88;;;;;;;20.63;25.23;100882.09;4837362;29;100782;-85
2021/10/25 10:13:06;;;;;;;8.63;6.77;;;;;;;20.42;25.72;100871.88;4853169;28;98644;-84
2021/10/25 10:15:38;;;;;;;9.85;8.05;;;;;;;20.10;25.47;100882.84;4835851;29;97351;-84
2021/10/25 10:18:09;;;;;;;9.23;7.28;;;;;;;19.73;25.99;100887.00;4816570;29;97479;-84
2021/10/25 10:21:02;;;;;;;9.38;7.90;;;;;;;19.51;26.56;100878.63;4851912;28;99613;-85
2021/10/25 10:23:30;;;;;;;12.55;6.80;;;;;;;19.40;26.88;100882.81;4822331;29;101251;-84
2021/10/25 10:26:03;;;;;;;7.97;7.13;;;;;;;18.78;27.15;100872.38;4884920;28;97977;-85
2021/10/25 10:28:40;;;;;;;8.25;7.13;;;;;;;18.37;28.03;100874.78;4839908;29;96855;-85
2021/10/25 10:31:14;;;;;;;7.78;6.97;;;;;;;18.38;28.17;100871.16;4827134;29;101829;-86
2021/10/25 10:33:52;;;;;;;10.13;8.45;;;;;;;18.06;28.41;100878.31;4825448;29;99164;-86
2021/10/25 10:36:22;;;;;;;15.65;6.35;;;;;;;17.91;29.02;100871.22;4849755;28;97224;-82
2021/10/25 10:39:06;;;;;;;6.60;5.30;;;;;;;17.66;29.18;100859.28;4834870;29;97330;-82
2021/10/25 10:41:49;;;;;;;6.85;5.40;;;;;;;17.32;29.17;100866.41;4851196;28;97215;-82
2021/10/25 10:44:52;;;;;;;6.20;4.82;;;;;;;17.28;29.38;100853.38;4850835;28;99565;-83
2021/10/25 10:47:19;;;;;;;5.43;4.45;;;;;;;17.19;29.44;100849.41;4837260;29;97384;-82
2021/10/25 10:49:55;;;;;;;7.65;5.13;;;;;;;17.07;29.54;100850.06;4833999;29;97035;-82
2021/10/25 10:52:34;;;;;;;8.20;5.78;;;;;;;16.87;29.83;100841.38;4851830;28;97974;-82
2021/10/25 10:55:03;;;;;;;7.22;4.90;;;;;;;16.75;30.08;100834.00;4840336;28;102032;-81
2021/10/25 11:00:25;;;;;;;9.00;5.43;;;;;;;16.67;30.77;100825.63;4851105;28;97355;-81
2021/10/25 11:02:57;;;;;;;6.13;5.10;;;;;;;16.28;31.40;100829.34;4864850;28;100821;-84
2021/10/25 11:05:40;;;;;;;8.55;5.90;;;;;;;16.07;31.96;100848.00;4867714;28;98055;-85
2021/10/25 11:08:20;;;;;;;7.30;5.05;;;;;;;15.92;31.80;100837.31;4852586;28;97156;-86
2021/10/25 11:10:49;;;;;;;8.50;5.20;;;;;;;15.75;32.00;100844.25;4836090;29;96981;-83
2021/10/25 11:13:23;;;;;;;13.23;6.07;;;;;;;15.71;31.86;100847.97;4837770;28;102652;-85
2021/10/25 11:16:12;;;;;;;5.82;4.85;;;;;;;15.64;32.21;100822.69;4837026;29;101229;-85
2021/10/25 11:18:40;;;;;;;6.22;5.63;;;;;;;15.60;32.38;100835.22;4868330;28;97410;-85
2021/10/25 11:21:09;;;;;;;10.90;5.00;;;;;;;15.58;32.46;100833.56;4835270;29;97343;-85
2021/10/25 11:23:51;;;;;;;7.30;4.57;;;;;;;15.48;33.26;100832.28;4837661;29;98077;-85
2021/10/25 11:26:35;;;;;;;8.65;6.65;;;;;;;15.51;32.90;100832.13;4831067;29;102664;-86
2021/10/25 11:29:17;;;;;;;8.52;5.25;;;;;;;15.49;32.85;100849.88;4835789;29;97324;-85
2021/10/25 11:31:44;;;;;;;6.28;5.53;;;;;;;15.34;32.84;100836.41;4853209;28;98203;-83
2021/10/25 11:34:19;;;;;;;8.25;4.97;;;;;;;15.16;32.77;100827.53;4852848;28;100490;-83
2021/10/25 11:37:05;;;;;;;7.97;5.00;;;;;;;15.05;32.98;100829.78;4849033;28;101570;-84
2021/10/25 11:39:45;;;;;;;9.93;5.47;;;;;;;15.07;33.02;100835.88;4841765;28;97864;-87
2021/10/25 11:42:14;;;;;;;6.30;5.18;;;;;;;15.04;33.12;100833.38;4857322;28;97272;-84
2021/10/25 11:44:41;;;;;;;10.60;5.13;;;;;;;14.93;33.71;100812.69;4848542;28;101309;-87
2021/10/25 11:47:18;;;;;;;10.15;5.90;;;;;;;14.92;33.28;100812.75;4855862;28;100023;-89
2021/10/25 11:49:44;;;;;;;8.15;5.03;;;;;;;14.96;33.55;100818.78;4856818;28;97262;-83
2021/10/25 11:52:09;;;;;;;8.95;4.93;;;;;;;14.90;33.53;100815.47;4844709;28;97044;-83
2021/10/25 11:54:50;;;;;;;10.52;5.40;;;;;;;14.91;33.38;100813.69;4848234;28;101729;-83
2021/10/25 11:57:16;;;;;;;8.73;4.78;;;;;;;14.96;32.96;100809.06;4834861;28;101003;-90
2021/10/25 11:59:42;;;;;;;7.88;6.95;;;;;;;14.91;33.46;100818.97;4829252;28;97501;-84
2021/10/25 12:02:14;;;;;;;24.02;8.07;;;;;;;14.89;33.48;100813.75;4860430;28;98594;-81
2021/10/25 12:04:43;;;;;;;9.75;7.30;;;;;;;14.89;33.65;100810.25;4842938;28;102097;-80
2021/10/25 12:07:09;;;;;;;7.90;6.70;;;;;;;14.90;33.93;100822.53;4860721;28;101660;-81
2021/10/25 12:09:35;;;;;;;6.97;6.28;;;;;;;14.87;33.74;100814.75;4861459;28;97403;-79
2021/10/25 12:12:14;;;;;;;9.80;6.95;;;;;;;14.94;33.66;100811.75;4868798;28;97535;-79
2021/10/25 12:14:43;;;;;;;9.38;6.88;;;;;;;14.92;33.33;100800.41;4848047;28;100803;-79
2021/10/25 12:17:14;;;;;;;8.25;6.93;;;;;;;14.89;33.51;100800.56;4846032;28;98533;-81
2021/10/25 12:19:42;;;;;;;8.93;6.60;;;;;;;15.03;33.19;100791.13;4835278;28;97418;-85
2021/10/25 12:22:19;;;;;;;8.63;6.70;;;;;;;15.19;33.06;100792.16;4898699;28;96864;-86
2021/10/25 12:24:47;;;;;;;8.18;7.07;;;;;;;15.11;33.18;100795.13;4880569;28;97377;-82
2021/10/25 12:27:21;;;;;;;8.35;7.43;;;;;;;15.13;32.92;100795.09;4862589;28;100147;-91
2021/10/25 12:29:58;;;;;;;10.77;7.40;;;;;;;15.06;33.24;100775.13;4865451;28;97406;-82
2021/10/25 12:32:23;;;;;;;9.27;6.85;;;;;;;15.20;32.97;100785.06;4860930;28;97195;-89
2021/10/25 12:34:53;;;;;;;8.10;7.40;;;;;;;15.17;33.17;100791.38;4836906;28;97495;-88
2021/10/25 12:37:27;;;;;;;8.10;6.35;;;;;;;15.10;33.51;100788.16;4833814;28;101475;-90
2021/10/25 12:39:55;;;;;;;11.82;6.85;;;;;;;15.18;33.74;100787.78;4862789;28;96850;-91
2021/10/25 12:42:22;;;;;;;8.43;6.90;;;;;;;15.12;33.78;100780.13;4861029;28;100146;-88
2021/10/25 12:44:51;;;;;;;11.07;7.35;;;;;;;15.16;34.10;100787.00;4874553;28;98922;-86
2021/10/25 12:47:19;;;;;;;12.82;6.85;;;;;;;15.24;34.39;100784.88;4873473;28;101124;-89
2021/10/25 12:49:51;;;;;;;10.10;6.72;;;;;;;15.19;34.04;100781.59;4828563;28;97314;-83
2021/10/25 12:52:17;;;;;;;7.97;7.18;;;;;;;15.15;33.85;100780.88;4830222;28;96872;-88
2021/10/25 12:54:43;;;;;;;10.27;7.47;;;;;;;15.21;33.99;100769.13;4856144;28;98067;-82
2021/10/25 12:57:16;;;;;;;10.30;7.47;;;;;;;15.27;33.69;100775.91;4865362;28;97346;-86
2021/10/25 12:59:42;;;;;;;10.35;7.63;;;;;;;15.18;34.11;100779.84;4877677;28;96909;-87
2021/10/25 13:02:09;;;;;;;9.88;6.88;;;;;;;15.10;34.19;100759.06;4827590;28;98017;-89
2021/10/25 13:04:36;;;;;;;10.00;6.70;;;;;;;15.20;33.99;100753.34;4839516;28;101244;-87
2021/10/25 13:07:14;;;;;;;7.53;6.47;;;;;;;15.21;33.99;100761.19;4865586;28;100650;-88
2021/10/25 13:09:48;;;;;;;11.68;6.88;;;;;;;15.11;34.26;100760.75;4852991;28;97057;-91
2021/10/25 13:12:14;;;;;;;8.25;7.15;;;;;;;15.06;34.38;100754.81;4872896;28;97466;-89
2021/10/25 13:14:39;;;;;;;9.82;6.53;;;;;;;14.96;34.71;100757.97;4855713;28;101529;-93